Time;durP1;ratioP1;P1;durP2;ratioP2;P2;SDS_P1;SDS_P2;PMS_P1;PMS_P2;Temp;Humidity;BMP_temperature;BMP_pressure;BME280_temperature;BME280_humidity;BME280_pressure;Samples;Min_cycle;Max_cycle;Signal;HPM_P1;HPM_P2
2023/04/20 00:07:18;;;;;;;3.03;2.35;;;;;;;6.41;77.74;101605.34;15419340;28;20089;-50
2023/04/20 00:14:52;;;;;;;2.97;2.40;;;;;;;6.28;78.28;101605.78;15432918;28;20456;-51
2023/04/20 00:22:27;;;;;;;4.32;2.65;;;;;;;6.22;78.34;101611.78;15431934;28;20105;-51
2023/04/20 00:30:03;;;;;;;4.15;2.97;;;;;;;5.93;79.22;101604.16;15429775;28;20038;-52
2023/04/20 00:37:36;;;;;;;2.47;1.58;;;;;;;6.06;78.83;101602.72;15411346;28;20416;-52
2023/04/20 00:45:11;;;;;;;10.07;2.80;;;;;;;6.43;76.91;101606.84;15444419;28;20035;-50
2023/04/20 00:52:45;;;;;;;3.60;2.15;;;;;;;6.30;77.73;101595.81;15444471;28;20488;-48
2023/04/20 01:00:20;;;;;;;7.75;2.95;;;;;;;6.08;78.30;101590.06;15412100;28;20043;-48
2023/04/20 01:07:54;;;;;;;4.93;3.15;;;;;;;5.84;78.91;101592.56;15426419;28;20093;-53
2023/04/20 01:15:28;;;;;;;5.73;2.63;;;;;;;6.13;77.96;101593.06;15442181;28;20054;-51
2023/04/20 01:23:03;;;;;;;8.18;3.00;;;;;;;5.78;79.24;101596.72;15422006;28;20053;-50
2023/04/20 01:30:37;;;;;;;6.70;3.03;;;;;;;6.02;78.80;101588.03;15442269;28;20110;-53
2023/04/20 01:38:17;;;;;;;;;;;;;;;6.28;77.08;101587.13;15427318;28;20077;-52
2023/04/20 01:45:49;;;;;;;4.55;1.90;;;;;;;6.05;78.02;101595.69;15423382;28;20304;-52
2023/04/20 01:53:25;;;;;;;3.58;2.25;;;;;;;5.73;78.91;101587.50;15421532;28;20078;-52
2023/04/20 02:01:00;;;;;;;6.82;2.53;;;;;;;6.04;77.87;101588.69;15427947;28;20073;-52
2023/04/20 02:08:34;;;;;;;4.60;2.30;;;;;;;6.21;77.48;101589.63;15426684;28;20058;-51
2023/04/20 02:16:08;;;;;;;7.70;2.85;;;;;;;6.15;77.67;101579.56;15442690;28;20043;-53
2023/04/20 02:23:42;;;;;;;5.30;1.98;;;;;;;6.05;77.90;101590.38;15426664;28;20574;-53
2023/04/20 02:31:15;;;;;;;3.88;2.10;;;;;;;6.00;78.15;101592.69;15453358;28;20042;-52
2023/04/20 02:38:52;;;;;;;3.65;2.03;;;;;;;5.99;78.42;101592.84;15453467;28;20433;-53
2023/04/20 02:46:24;;;;;;;5.45;2.15;;;;;;;6.16;77.78;101602.59;15451227;28;20144;-53
2023/04/20 02:53:59;;;;;;;5.33;2.80;;;;;;;5.95;78.25;101588.81;15454060;28;20047;-52
2023/04/20 03:01:34;;;;;;;3.80;2.70;;;;;;;6.05;77.91;101593.03;15433690;28;20118;-51
2023/04/20 03:09:16;;;;;;;5.07;2.72;;;;;;;6.02;77.72;101593.38;15415997;28;20062;-52
2023/04/20 03:17:07;;;;;;;9.68;3.75;;;;;;;6.13;76.98;101605.56;15437030;28;20031;-51
2023/04/20 03:24:42;;;;;;;4.10;2.35;;;;;;;5.81;78.64;101598.22;15435246;28;20138;-56
2023/04/20 03:32:28;;;;;;;8.48;2.15;;;;;;;6.03;77.40;101597.69;15450505;28;20118;-54
2023/04/20 03:40:02;;;;;;;2.80;2.27;;;;;;;5.85;78.03;101616.38;15434715;28;20051;-52
2023/04/20 03:47:36;;;;;;;5.97;2.40;;;;;;;6.21;77.64;101610.94;15449685;28;20043;-52
2023/04/20 03:55:10;;;;;;;1.67;1.47;;;;;;;6.10;77.34;101612.03;15433039;28;20058;-54
2023/04/20 04:02:49;;;;;;;7.15;2.67;;;;;;;6.65;76.07;101608.91;15445530;28;20384;-53
2023/04/20 04:10:34;;;;;;;8.50;3.60;;;;;;;6.56;74.28;101617.88;15413563;28;20101;-53
2023/04/20 04:18:06;;;;;;;7.55;4.00;;;;;;;6.47;74.66;101624.19;15447088;28;20054;-52
2023/04/20 04:25:42;;;;;;;17.75;4.55;;;;;;;6.23;75.54;101632.94;15428779;28;20401;-54
2023/04/20 04:33:20;;;;;;;7.53;3.05;;;;;;;6.13;75.24;101635.72;15443256;28;20528;-53
2023/04/20 04:41:00;;;;;;;8.75;4.15;;;;;;;6.53;73.37;101636.06;15445378;28;20531;-52
2023/04/20 04:48:35;;;;;;;7.25;4.32;;;;;;;6.51;73.59;101654.03;15445897;28;20574;-55
2023/04/20 04:56:12;;;;;;;11.48;3.72;;;;;;;6.53;73.48;101646.75;15431276;28;20054;-50
2023/04/20 05:03:45;;;;;;;5.43;2.95;;;;;;;6.75;72.30;101646.13;15431180;28;20061;-52
2023/04/20 05:11:19;;;;;;;6.85;3.83;;;;;;;6.88;71.58;101645.66;15445538;28;20050;-51
2023/04/20 05:18:52;;;;;;;8.05;4.03;;;;;;;6.32;74.89;101655.13;15428854;28;20054;-51
2023/04/20 05:26:26;;;;;;;7.22;3.00;;;;;;;5.78;76.95;101662.44;15428114;28;20072;-53
2023/04/20 05:34:00;;;;;;;8.82;3.72;;;;;;;6.11;76.15;101676.88;15418572;28;20487;-49
2023/04/20 05:41:34;;;;;;;8.05;4.28;;;;;;;6.15;75.86;101678.19;15473042;28;20101;-49
2023/04/20 05:49:07;;;;;;;10.05;2.95;;;;;;;6.20;75.57;101667.06;15437988;28;20043;-51
2023/04/20 05:56:41;;;;;;;5.73;4.03;;;;;;;6.71;74.00;101676.78;15413354;28;20047;-50
2023/04/20 06:04:14;;;;;;;5.05;3.42;;;;;;;7.74;69.74;101681.75;15431247;28;20101;-53
2023/04/20 06:11:48;;;;;;;7.03;3.60;;;;;;;6.88;70.95;101693.69;15438034;28;20046;-53
2023/04/20 06:19:21;;;;;;;6.38;3.55;;;;;;;7.08;71.68;101691.56;15450448;28;20073;-51
2023/04/20 06:26:56;;;;;;;4.53;3.67;;;;;;;7.40;70.78;101672.06;15439996;28;20071;-50
2023/04/20 06:34:29;;;;;;;8.55;4.38;;;;;;;6.68;72.50;101690.47;15440561;28;20051;-52
2023/04/20 06:42:03;;;;;;;11.50;4.30;;;;;;;6.85;72.99;101697.53;15440180;28;20050;-50
2023/04/20 06:49:38;;;;;;;4.88;3.00;;;;;;;7.30;71.24;101706.94;15438095;28;20045;-53
2023/04/20 06:57:12;;;;;;;7.60;4.53;;;;;;;7.13;69.90;101713.25;15435773;28;20042;-55
2023/04/20 07:04:44;;;;;;;7.25;3.85;;;;;;;8.30;68.51;101704.03;15434395;28;20093;-53
2023/04/20 07:12:19;;;;;;;7.23;5.20;;;;;;;8.01;67.62;101699.25;15435747;28;20069;-49
2023/04/20 07:20:08;;;;;;;4.82;2.22;;;;;;;8.46;64.32;101713.91;15438900;28;20050;-57
2023/04/20 07:27:43;;;;;;;6.15;2.92;;;;;;;7.67;67.41;101716.31;15421066;28;20057;-53
2023/04/20 07:35:17;;;;;;;6.72;2.88;;;;;;;7.57;68.12;101723.69;15432419;28;20072;-51
2023/04/20 07:42:51;;;;;;;6.82;2.97;;;;;;;7.78;67.15;101724.00;15434564;28;20587;-51
2023/04/20 07:50:24;;;;;;;5.05;3.33;;;;;;;8.18;66.67;101735.66;15442045;28;20095;-51
2023/04/20 07:57:59;;;;;;;5.18;4.15;;;;;;;7.72;67.86;101730.03;15432337;28;20047;-51
2023/04/20 08:05:32;;;;;;;8.65;3.38;;;;;;;7.71;68.48;101727.53;15435023;28;20053;-53
2023/04/20 08:13:06;;;;;;;6.38;3.63;;;;;;;7.87;68.78;101727.50;15434940;28;20043;-52
2023/04/20 08:20:39;;;;;;;6.05;3.25;;;;;;;7.74;68.76;101741.41;15429264;28;20125;-51
2023/04/20 08:28:15;;;;;;;7.88;3.40;;;;;;;9.12;64.76;101742.88;15433009;28;20038;-52
2023/04/20 08:35:50;;;;;;;13.85;5.10;;;;;;;10.25;62.65;101735.97;15434580;28;20046;-51
2023/04/20 08:43:24;;;;;;;7.90;3.70;;;;;;;9.27;65.15;101728.72;15432769;28;20404;-50
2023/04/20 08:50:57;;;;;;;10.40;3.60;;;;;;;9.09;66.02;101735.22;15432686;28;20407;-50
2023/04/20 08:58:32;;;;;;;7.40;3.00;;;;;;;8.77;64.55;101748.75;15432871;28;20452;-51
2023/04/20 09:06:07;;;;;;;6.65;2.35;;;;;;;8.90;64.33;101746.31;15447078;28;20492;-52
2023/04/20 09:13:41;;;;;;;6.95;3.15;;;;;;;9.31;64.20;101749.63;15445580;28;20058;-52
2023/04/20 09:21:14;;;;;;;7.15;2.60;;;;;;;9.23;63.95;101746.16;15428253;28;20479;-51
2023/04/20 09:28:49;;;;;;;4.28;2.92;;;;;;;8.69;68.83;101745.09;15431759;28;20054;-52
2023/04/20 09:36:22;;;;;;;11.15;3.42;;;;;;;8.88;69.51;101737.66;15427862;28;20081;-51
2023/04/20 09:43:57;;;;;;;5.03;2.80;;;;;;;9.24;67.74;101731.78;15425068;28;20496;-52
2023/04/20 09:51:31;;;;;;;4.55;2.28;;;;;;;8.15;70.99;101723.47;15428994;28;20042;-49
2023/04/20 09:59:06;;;;;;;4.93;2.60;;;;;;;8.89;68.55;101709.84;15429557;28;20055;-49
2023/04/20 10:06:40;;;;;;;2.10;1.80;;;;;;;8.89;68.31;101721.41;15430089;28;20054;-50
2023/04/20 10:14:21;;;;;;;8.82;3.50;;;;;;;9.72;66.36;101727.88;15445097;28;20049;-51
2023/04/20 10:21:54;;;;;;;4.88;2.67;;;;;;;9.96;64.43;101726.84;15429810;28;20492;-49
2023/04/20 10:29:30;;;;;;;4.73;2.63;;;;;;;10.19;63.29;101732.16;15430662;28;20047;-49
2023/04/20 10:37:09;;;;;;;6.57;3.05;;;;;;;10.92;62.29;101711.69;15432673;28;20042;-52
2023/04/20 10:44:50;;;;;;;6.57;3.40;;;;;;;11.02;63.82;101708.72;15443253;28;20066;-54
2023/04/20 10:52:33;;;;;;;7.95;2.50;;;;;;;11.53;61.22;101705.94;15426898;28;20113;-51
2023/04/20 11:00:16;;;;;;;6.37;2.43;;;;;;;10.73;63.60;101702.38;15433523;28;20677;-55
2023/04/20 11:07:52;;;;;;;4.65;2.85;;;;;;;10.98;62.52;101700.19;15436184;28;20050;-49
2023/04/20 11:15:32;;;;;;;5.40;1.88;;;;;;;12.17;60.87;101695.91;15437160;28;20050;-50
2023/04/20 11:23:05;;;;;;;3.53;2.47;;;;;;;12.77;57.74;101680.88;15436952;28;20118;-50
2023/04/20 11:30:40;;;;;;;5.63;3.20;;;;;;;11.88;60.57;101686.16;15433810;28;20034;-53
2023/04/20 11:38:33;;;;;;;3.97;2.25;;;;;;;11.33;62.00;101686.91;15420368;28;20058;-50
2023/04/20 11:46:14;;;;;;;;;;;;;;;11.15;62.01;101680.13;15436349;28;20077;-53
2023/04/20 11:53:47;;;;;;;6.05;2.83;;;;;;;12.10;59.95;101662.72;15438727;28;19922;-50
2023/04/20 12:01:21;;;;;;;4.40;2.80;;;;;;;11.90;59.82;101648.34;15434861;28;20074;-50
2023/04/20 12:08:54;;;;;;;4.30;2.60;;;;;;;11.99;61.99;101647.16;15431670;28;20043;-50
2023/04/20 12:16:28;;;;;;;6.13;2.83;;;;;;;12.07;60.72;101638.91;15445130;28;20050;-52
2023/04/20 12:24:01;;;;;;;3.42;1.83;;;;;;;13.60;56.76;101637.50;15415448;28;20105;-52
2023/04/20 12:31:35;;;;;;;3.80;2.17;;;;;;;13.81;55.93;101636.47;15432261;28;20051;-53
2023/04/20 12:39:10;;;;;;;5.68;3.22;;;;;;;13.64;57.06;101632.53;15433148;28;20676;-51
2023/04/20 12:46:44;;;;;;;4.65;2.28;;;;;;;13.73;55.98;101613.22;15431388;28;20046;-52
2023/04/20 12:54:17;;;;;;;3.28;2.03;;;;;;;15.10;53.77;101594.97;15412592;28;20590;-51
2023/04/20 13:01:51;;;;;;;5.00;2.80;;;;;;;14.99;53.94;101598.41;15427652;28;20073;-52
2023/04/20 13:09:25;;;;;;;4.43;2.35;;;;;;;14.73;54.17;101593.97;15444192;28;20109;-50
2023/04/20 13:17:00;;;;;;;6.90;2.42;;;;;;;15.51;51.94;101578.19;15430678;28;20050;-50
2023/04/20 13:24:33;;;;;;;3.63;1.35;;;;;;;15.31;52.41;101572.97;15431120;28;20047;-50
2023/04/20 13:32:07;;;;;;;4.35;2.42;;;;;;;15.83;51.27;101561.91;15424598;28;20225;-52
2023/04/20 13:39:40;;;;;;;9.43;2.78;;;;;;;15.84;51.38;101558.13;15424715;28;20123;-53
2023/04/20 13:47:14;;;;;;;;;;;;;;;15.10;52.00;101551.72;15439817;28;20101;-52
2023/04/20 13:54:48;;;;;;;14.07;3.45;;;;;;;14.82;54.26;101549.44;15443800;28;19925;-50
2023/04/20 14:02:23;;;;;;;4.05;2.42;;;;;;;15.20;52.67;101543.97;15427463;28;20039;-52
2023/04/20 14:09:58;;;;;;;6.32;2.65;;;;;;;15.23;52.23;101532.69;15427068;28;20043;-52
2023/04/20 14:17:33;;;;;;;3.88;2.25;;;;;;;14.95;53.56;101529.59;15428137;28;20424;-52
2023/04/20 14:25:07;;;;;;;4.50;2.33;;;;;;;15.41;53.14;101518.38;15434278;28;20050;-50
2023/04/20 14:32:41;;;;;;;4.30;2.72;;;;;;;15.72;51.37;101512.03;15437265;28;20496;-49
2023/04/20 14:40:14;;;;;;;4.30;1.83;;;;;;;15.34;52.34;101501.38;15437517;28;20053;-51
2023/04/20 14:47:52;;;;;;;5.30;1.95;;;;;;;16.11;52.30;101492.84;15437465;28;20116;-53
2023/04/20 14:55:25;;;;;;;7.28;2.60;;;;;;;15.67;51.28;101486.72;15437481;28;20742;-51
2023/04/20 15:02:59;;;;;;;;;;;;;;;15.88;52.45;101474.59;15434313;28;20066;-50
2023/04/20 15:10:32;;;;;;;9.88;2.50;;;;;;;15.27;52.41;101476.28;15437934;28;20450;-52
2023/04/20 15:18:06;;;;;;;4.20;2.53;;;;;;;15.58;52.04;101475.31;15445824;28;20101;-53
2023/04/20 15:25:39;;;;;;;4.15;2.65;;;;;;;15.55;51.89;101463.06;15424002;28;20101;-53
2023/04/20 15:33:13;;;;;;;3.28;2.08;;;;;;;15.39;53.02;101468.22;15434412;28;20046;-50
2023/04/20 15:40:46;;;;;;;2.38;1.63;;;;;;;15.34;52.71;101463.53;15436141;28;20078;-51
2023/04/20 15:48:20;;;;;;;2.88;1.90;;;;;;;15.91;50.40;101450.59;15435416;28;20039;-49
2023/04/20 15:55:53;;;;;;;2.47;1.33;;;;;;;16.08;50.44;101459.72;15436359;28;20051;-50
2023/04/20 16:03:27;;;;;;;5.85;2.50;;;;;;;15.75;51.95;101457.44;15449253;28;20046;-53
2023/04/20 16:11:00;;;;;;;3.38;1.40;;;;;;;15.45;50.83;101456.53;15435050;28;20062;-53
2023/04/20 16:18:34;;;;;;;4.38;2.22;;;;;;;15.50;51.07;101462.91;15435429;28;20047;-53
2023/04/20 16:26:07;;;;;;;4.43;1.83;;;;;;;15.48;51.24;101456.91;15433643;28;20424;-51
2023/04/20 16:33:41;;;;;;;1.50;1.23;;;;;;;15.42;51.61;101457.78;15423966;28;20050;-52
2023/04/20 16:41:15;;;;;;;2.30;1.45;;;;;;;15.21;51.83;101467.19;15433292;28;20163;-54
2023/04/20 16:48:50;;;;;;;4.40;1.40;;;;;;;15.32;51.32;101460.19;15433303;28;20046;-48
2023/04/20 16:56:23;;;;;;;3.55;2.25;;;;;;;15.04;53.09;101455.28;15404480;28;20069;-50
2023/04/20 17:03:58;;;;;;;5.57;1.87;;;;;;;14.92;53.62;101448.91;15427288;28;20041;-51
2023/04/20 17:11:34;;;;;;;2.22;1.75;;;;;;;14.86;54.05;101457.94;15412690;28;20146;-49
2023/04/20 17:19:08;;;;;;;4.20;1.73;;;;;;;14.97;54.23;101455.34;15427667;28;20047;-48
2023/04/20 17:26:41;;;;;;;5.70;1.52;;;;;;;14.70;54.71;101454.72;15429656;28;20055;-49
2023/04/20 17:34:17;;;;;;;6.07;1.45;;;;;;;14.75;55.00;101457.59;15429592;28;20055;-49
2023/04/20 17:41:50;;;;;;;4.32;1.73;;;;;;;14.27;55.49;101471.63;15429120;28;20047;-49
2023/04/20 17:49:24;;;;;;;3.08;1.65;;;;;;;14.29;55.04;101476.81;15429442;28;20043;-49
2023/04/20 17:56:58;;;;;;;3.75;1.90;;;;;;;14.17;55.38;101481.22;15441005;28;20066;-51
2023/04/20 18:04:32;;;;;;;;;;;;;;;13.60;56.27;101428.97;15451428;28;20515;-47
2023/04/20 18:12:06;;;;;;;4.75;1.85;;;;;;;13.81;56.88;101490.75;15442940;28;20272;-50
2023/04/20 18:19:40;;;;;;;5.50;2.40;;;;;;;14.02;56.30;101501.22;15442839;28;20109;-50
2023/04/20 18:27:14;;;;;;;3.50;2.13;;;;;;;13.78;56.99;101510.88;15436090;28;20054;-58
2023/04/20 18:34:50;;;;;;;2.97;1.70;;;;;;;13.38;57.98;101514.69;15439154;28;20062;-47
2023/04/20 18:42:23;;;;;;;5.93;2.92;;;;;;;13.37;58.50;101515.72;15435964;28;20088;-49
2023/04/20 18:49:57;;;;;;;2.63;1.87;;;;;;;12.87;59.69;101515.28;15422712;28;20051;-48
2023/04/20 18:57:29;;;;;;;4.07;2.45;;;;;;;13.12;59.42;101520.91;15452349;28;20282;-50
2023/04/20 19:05:04;;;;;;;5.03;2.60;;;;;;;12.88;60.23;101511.59;15439081;28;20043;-53
2023/04/20 19:12:37;;;;;;;3.17;1.83;;;;;;;13.29;58.89;101508.72;15438693;28;20047;-50
2023/04/20 19:20:12;;;;;;;4.95;2.53;;;;;;;13.08;59.83;101512.41;15433986;28;20047;-50
2023/04/20 19:27:45;;;;;;;3.35;1.77;;;;;;;12.61;61.46;101514.25;15441541;28;20061;-49
2023/04/20 19:35:19;;;;;;;1.40;1.30;;;;;;;12.55;62.06;101520.47;15416425;28;20061;-49
2023/04/20 19:42:52;;;;;;;2.58;1.70;;;;;;;12.50;61.96;101515.69;15433438;28;20043;-51
2023/04/20 19:50:27;;;;;;;5.43;2.80;;;;;;;12.61;61.83;101519.63;15444122;28;20047;-52
2023/04/20 19:57:59;;;;;;;3.85;1.95;;;;;;;12.28;62.71;101511.47;15440876;28;20051;-50
2023/04/20 20:05:34;;;;;;;3.70;1.97;;;;;;;12.46;61.80;101521.69;15435480;28;20059;-53
2023/04/20 20:13:07;;;;;;;8.30;2.35;;;;;;;12.34;62.27;101515.22;15432892;28;20082;-52
2023/04/20 20:20:41;;;;;;;6.40;2.53;;;;;;;12.11;62.50;101519.06;15432137;28;20105;-49
2023/04/20 20:28:13;;;;;;;1.67;1.17;;;;;;;12.08;62.58;101516.81;15431016;28;20640;-50
2023/04/20 20:35:47;;;;;;;3.70;1.83;;;;;;;12.07;62.63;101515.13;15447769;28;20505;-51
2023/04/20 20:43:21;;;;;;;5.95;1.73;;;;;;;12.04;63.18;101520.09;15429867;28;20054;-53
2023/04/20 20:50:55;;;;;;;3.80;1.70;;;;;;;11.88;63.43;101513.16;15429517;28;20130;-51
2023/04/20 20:58:28;;;;;;;2.25;1.50;;;;;;;11.98;63.34;101514.50;15429260;28;20046;-55
2023/04/20 21:06:03;;;;;;;4.43;1.83;;;;;;;11.89;63.23;101496.84;15427672;28;20049;-53
2023/04/20 21:13:35;;;;;;;3.00;2.13;;;;;;;12.12;62.59;101509.97;15428223;28;20128;-53
2023/04/20 21:21:12;;;;;;;;;;;;;;;12.05;63.16;101516.38;15430048;28;20041;-54
2023/04/20 21:28:45;;;;;;;2.75;1.50;;;;;;;11.94;63.39;101509.72;15423862;28;19925;-52
2023/04/20 21:36:19;;;;;;;3.67;1.60;;;;;;;11.64;64.20;101512.59;15441551;28;20055;-56
2023/04/20 21:43:52;;;;;;;4.35;2.35;;;;;;;11.66;64.04;101497.13;15428045;28;20050;-51
2023/04/20 21:51:26;;;;;;;2.13;1.35;;;;;;;11.47;65.03;101522.88;15424818;28;20039;-53
2023/04/20 21:58:59;;;;;;;4.20;2.15;;;;;;;11.42;65.32;101519.06;15428293;28;20053;-52
2023/04/20 22:06:33;;;;;;;4.50;2.03;;;;;;;11.34;65.61;101530.84;15425468;28;20047;-52
2023/04/20 22:14:06;;;;;;;4.22;1.60;;;;;;;11.45;64.95;101530.28;15421174;28;20134;-51
2023/04/20 22:21:41;;;;;;;4.47;2.17;;;;;;;11.55;64.54;101540.69;15424883;28;20536;-52
2023/04/20 22:29:16;;;;;;;5.13;1.75;;;;;;;11.35;65.32;101537.88;15427010;28;20123;-53
2023/04/20 22:36:50;;;;;;;12.33;1.90;;;;;;;11.27;65.51;101546.06;15426037;28;20107;-53
2023/04/20 22:44:22;;;;;;;3.20;1.85;;;;;;;10.97;66.47;101537.34;15427620;28;20535;-53
2023/04/20 22:51:57;;;;;;;3.77;1.83;;;;;;;10.94;66.47;101535.88;15432873;28;20047;-52
2023/04/20 22:59:29;;;;;;;2.65;1.52;;;;;;;10.68;67.31;101549.06;15436075;28;20050;-52
2023/04/20 23:07:05;;;;;;;3.97;1.47;;;;;;;11.11;65.39;101549.88;15452292;28;20043;-52
2023/04/20 23:14:41;;;;;;;2.40;1.75;;;;;;;10.92;66.15;101543.31;15436442;28;20112;-50
2023/04/20 23:22:15;;;;;;;3.38;1.88;;;;;;;10.89;66.22;101537.47;15436000;28;20132;-51
2023/04/20 23:29:50;;;;;;;3.70;1.83;;;;;;;10.92;66.00;101535.25;15434635;28;20452;-53
2023/04/20 23:37:24;;;;;;;2.67;1.65;;;;;;;10.68;66.64;101541.84;15433349;28;20138;-51
2023/04/20 23:44:57;;;;;;;2.35;1.98;;;;;;;10.92;66.04;101540.63;15434908;28;20492;-53
2023/04/20 23:52:31;;;;;;;3.87;1.97;;;;;;;10.55;67.11;101549.75;15432234;28;20074;-50
